Time;durP1;ratioP1;P1;durP2;ratioP2;P2;SDS_P1;SDS_P2;PMS_P1;PMS_P2;Temp;Humidity;BMP_temperature;BMP_pressure;BME280_temperature;BME280_humidity;BME280_pressure;Samples;Min_cycle;Max_cycle;Signal;HPM_P1;HPM_P2
2021/07/16 00:00:06;;;;;;;9.52;5.32;;;;;;;19.24;56.39;101449.25;3562138;40;20159;-73
2021/07/16 00:02:36;;;;;;;8.43;5.50;;;;;;;19.25;56.43;101451.88;3537813;40;20035;-72
2021/07/16 00:05:05;;;;;;;7.50;5.07;;;;;;;19.26;56.71;101461.06;3559769;40;20053;-73
2021/07/16 00:07:33;;;;;;;7.28;4.90;;;;;;;19.26;56.43;101453.59;3563783;40;20060;-73
2021/07/16 00:10:01;;;;;;;8.48;5.25;;;;;;;19.26;56.27;101461.94;3564511;40;20120;-73
2021/07/16 00:12:29;;;;;;;8.15;5.25;;;;;;;19.27;56.09;101463.63;3542446;40;20046;-73
2021/07/16 00:14:57;;;;;;;8.23;4.85;;;;;;;19.28;56.47;101457.03;3567650;40;20291;-73
2021/07/16 00:17:25;;;;;;;6.75;5.15;;;;;;;19.26;56.08;101459.16;3547551;40;20049;-73
2021/07/16 00:19:54;;;;;;;8.13;5.40;;;;;;;19.29;56.32;101463.47;3568746;40;20406;-72
2021/07/16 00:22:22;;;;;;;8.30;4.82;;;;;;;19.26;56.83;101470.25;3560085;40;20402;-72
2021/07/16 00:24:50;;;;;;;7.68;4.55;;;;;;;19.25;56.40;101460.19;3564750;40;20131;-72
2021/07/16 00:27:19;;;;;;;8.02;5.00;;;;;;;19.24;55.88;101458.44;3529173;40;20044;-72
2021/07/16 00:29:47;;;;;;;7.65;4.60;;;;;;;19.23;56.09;101447.53;3562418;40;20049;-73
2021/07/16 00:32:15;;;;;;;7.88;4.95;;;;;;;19.22;56.57;101440.25;3546016;40;20052;-72
2021/07/16 00:34:43;;;;;;;8.55;5.00;;;;;;;19.22;56.28;101452.22;3566078;40;20042;-72
2021/07/16 00:37:12;;;;;;;9.13;5.38;;;;;;;19.23;55.95;101461.41;3566110;40;20037;-72
2021/07/16 00:39:40;;;;;;;7.22;4.53;;;;;;;19.20;56.17;101460.69;3566792;40;20053;-72
2021/07/16 00:42:08;;;;;;;6.10;4.28;;;;;;;19.20;55.97;101457.94;3565570;40;20162;-72
2021/07/16 00:44:37;;;;;;;9.00;5.03;;;;;;;19.22;56.33;101452.22;3560169;40;20061;-72
2021/07/16 00:47:05;;;;;;;8.00;4.65;;;;;;;19.20;55.91;101457.94;3532868;40;20042;-72
2021/07/16 00:49:34;;;;;;;6.45;4.30;;;;;;;19.22;56.57;101457.75;3563221;40;20420;-71
2021/07/16 00:52:02;;;;;;;5.63;4.15;;;;;;;19.22;56.01;101468.84;3534925;40;20156;-72
2021/07/16 00:54:32;;;;;;;7.78;5.10;;;;;;;19.24;55.67;101461.22;3563980;40;20400;-72
2021/07/16 00:57:00;;;;;;;9.82;5.20;;;;;;;19.23;55.72;101467.81;3566531;40;20038;-72
2021/07/16 00:59:28;;;;;;;9.15;5.32;;;;;;;19.23;56.27;101475.25;3567035;40;20049;-72
2021/07/16 01:01:57;;;;;;;7.40;4.68;;;;;;;19.24;55.91;101471.47;3565334;40;20091;-72
2021/07/16 01:04:25;;;;;;;6.45;4.22;;;;;;;19.24;55.76;101469.56;3565914;40;20045;-72
2021/07/16 01:06:54;;;;;;;6.75;4.55;;;;;;;19.23;55.93;101467.81;3566149;40;20041;-72
2021/07/16 01:09:22;;;;;;;6.13;4.00;;;;;;;19.23;55.98;101466.94;3566831;40;20055;-72
2021/07/16 01:11:52;;;;;;;6.55;4.18;;;;;;;19.25;55.78;101467.66;3565641;40;20038;-72
2021/07/16 01:14:22;;;;;;;7.65;4.32;;;;;;;19.22;56.00;101470.75;3566664;40;20063;-72
2021/07/16 01:16:50;;;;;;;7.47;3.97;;;;;;;19.22;56.28;101470.75;3564503;40;20059;-72
2021/07/16 01:19:31;;;;;;;7.60;3.58;;;;;;;19.23;56.11;101475.25;3559001;40;20295;-72
2021/07/16 01:22:02;;;;;;;6.18;4.25;;;;;;;19.20;55.69;101473.69;3540532;40;20445;-72
2021/07/16 01:24:32;;;;;;;6.88;4.10;;;;;;;19.20;55.73;101477.34;3562069;40;20399;-72
2021/07/16 01:27:00;;;;;;;7.20;4.20;;;;;;;19.18;56.05;101475.81;3561249;40;20053;-73
2021/07/16 01:29:28;;;;;;;5.88;3.80;;;;;;;19.17;55.62;101474.94;3562483;40;20092;-72
2021/07/16 01:31:56;;;;;;;8.82;4.40;;;;;;;19.16;55.46;101481.53;3559421;40;20046;-72
2021/07/16 01:34:25;;;;;;;7.28;4.43;;;;;;;19.15;55.16;101485.31;3566879;40;20578;-72
2021/07/16 01:36:54;;;;;;;7.72;4.57;;;;;;;19.14;55.55;101478.03;3564341;40;20053;-72
2021/07/16 01:39:22;;;;;;;7.07;4.20;;;;;;;19.12;55.83;101476.47;3568091;40;20492;-72
2021/07/16 01:41:51;;;;;;;6.07;4.40;;;;;;;19.11;55.63;101483.94;3541937;40;20486;-72
2021/07/16 01:44:20;;;;;;;6.63;4.15;;;;;;;19.08;55.88;101487.06;3556246;40;20495;-73
2021/07/16 01:46:48;;;;;;;10.88;5.15;;;;;;;19.07;55.44;101477.00;3548652;40;20531;-72
2021/07/16 01:49:16;;;;;;;6.55;4.57;;;;;;;19.06;55.62;101479.94;3559931;40;20057;-72
2021/07/16 01:51:44;;;;;;;7.00;4.70;;;;;;;19.05;55.41;101483.75;3561560;40;20045;-72
2021/07/16 01:54:13;;;;;;;7.60;5.05;;;;;;;19.04;55.92;101487.56;3566613;40;20064;-72
2021/07/16 01:56:41;;;;;;;6.60;4.55;;;;;;;19.03;55.61;101481.16;3558185;40;20060;-73
2021/07/16 01:59:13;;;;;;;7.30;5.00;;;;;;;19.04;55.47;101484.78;3558966;40;20390;-72
2021/07/16 02:01:41;;;;;;;6.65;4.95;;;;;;;19.01;55.81;101491.56;3568018;40;20050;-72
2021/07/16 02:04:10;;;;;;;9.23;5.00;;;;;;;19.02;55.41;101486.91;3568072;40;20056;-72
2021/07/16 02:06:39;;;;;;;7.63;4.53;;;;;;;18.99;55.82;101488.09;3554151;40;20276;-72
2021/07/16 02:09:08;;;;;;;7.30;4.38;;;;;;;19.00;55.87;101491.75;3559015;40;20132;-72
2021/07/16 02:11:36;;;;;;;7.05;4.35;;;;;;;18.97;55.89;101489.28;3561935;40;20413;-72
2021/07/16 02:14:05;;;;;;;8.98;4.70;;;;;;;18.95;55.39;101489.47;3568171;40;20406;-72
2021/07/16 02:16:34;;;;;;;6.18;4.18;;;;;;;18.97;55.09;101494.84;3554985;40;20070;-72
2021/07/16 02:19:02;;;;;;;6.95;4.43;;;;;;;18.94;55.46;101496.03;3567522;40;20079;-72
2021/07/16 02:21:30;;;;;;;5.90;4.00;;;;;;;18.92;55.30;101488.97;3567788;40;20048;-72
2021/07/16 02:23:59;;;;;;;7.53;4.07;;;;;;;18.92;54.88;101494.50;3567852;40;20127;-72
2021/07/16 02:26:27;;;;;;;6.63;4.03;;;;;;;18.90;55.32;101493.81;3547351;40;20078;-72
2021/07/16 02:28:55;;;;;;;6.25;4.28;;;;;;;18.88;55.46;101496.75;3556856;40;20042;-72
2021/07/16 02:31:23;;;;;;;7.38;4.32;;;;;;;18.86;55.12;101501.56;3549631;40;20033;-72
2021/07/16 02:33:53;;;;;;;6.60;4.10;;;;;;;18.87;54.84;101496.91;3563919;40;20162;-72
2021/07/16 02:36:21;;;;;;;6.57;4.05;;;;;;;18.83;54.86;101496.41;3546099;40;20391;-72
2021/07/16 02:38:49;;;;;;;7.30;3.97;;;;;;;18.81;55.02;101498.47;3562566;40;20053;-73
2021/07/16 02:41:17;;;;;;;6.78;3.63;;;;;;;18.80;55.12;101497.59;3555771;40;20368;-72
2021/07/16 02:43:45;;;;;;;6.55;3.67;;;;;;;18.80;55.07;101507.81;3567702;40;20053;-73
2021/07/16 02:46:14;;;;;;;6.38;3.65;;;;;;;18.77;55.39;101506.22;3555038;40;20037;-72
2021/07/16 02:48:42;;;;;;;5.97;3.47;;;;;;;18.77;54.89;101508.16;3567063;40;20132;-72
2021/07/16 02:51:11;;;;;;;5.63;3.85;;;;;;;18.77;55.07;101508.97;3558606;40;20070;-72
2021/07/16 02:53:39;;;;;;;6.97;3.80;;;;;;;18.74;55.15;101523.19;3564171;40;20056;-72
2021/07/16 02:56:07;;;;;;;7.30;3.85;;;;;;;18.75;54.88;101518.53;3560517;40;20173;-72
2021/07/16 02:58:35;;;;;;;6.68;4.05;;;;;;;18.74;55.10;101514.00;3561129;40;20056;-72
2021/07/16 03:01:03;;;;;;;6.80;4.00;;;;;;;18.72;55.53;101519.72;3549543;40;20072;-72
2021/07/16 03:03:32;;;;;;;6.40;4.30;;;;;;;18.72;55.05;101521.63;3567224;40;20076;-72
2021/07/16 03:06:00;;;;;;;6.45;3.80;;;;;;;18.71;55.54;101525.44;3557009;40;20365;-72
2021/07/16 03:08:29;;;;;;;7.75;4.47;;;;;;;18.72;55.28;101527.16;3567972;40;20150;-73
2021/07/16 03:10:57;;;;;;;8.02;4.15;;;;;;;18.69;55.05;101524.75;3554733;40;20069;-72
2021/07/16 03:13:25;;;;;;;7.07;4.55;;;;;;;18.69;55.50;101531.13;3562133;40;20101;-72
2021/07/16 03:15:54;;;;;;;7.75;4.43;;;;;;;18.70;55.15;101532.00;3559910;40;20323;-72
2021/07/16 03:18:22;;;;;;;8.48;4.35;;;;;;;18.70;55.69;101529.22;3570227;40;20025;-71
2021/07/16 03:20:51;;;;;;;7.15;4.22;;;;;;;18.70;55.51;101538.41;3567589;40;20079;-72
2021/07/16 03:23:21;;;;;;;8.07;4.55;;;;;;;18.69;55.26;101528.38;3558686;40;20131;-72
2021/07/16 03:25:50;;;;;;;6.25;4.28;;;;;;;18.72;55.42;101541.91;3566411;40;20389;-72
2021/07/16 03:28:19;;;;;;;7.93;4.35;;;;;;;18.68;55.68;101543.28;3562814;40;20077;-72
2021/07/16 03:30:47;;;;;;;7.70;4.63;;;;;;;18.68;55.25;101543.28;3551039;40;20043;-72
2021/07/16 03:33:16;;;;;;;7.25;4.78;;;;;;;18.68;55.06;101548.84;3557977;40;20053;-72
2021/07/16 03:35:44;;;;;;;7.78;4.60;;;;;;;18.67;55.42;101549.88;3558592;40;20046;-72
2021/07/16 03:38:12;;;;;;;8.43;5.22;;;;;;;18.66;55.23;101552.78;3564901;40;20053;-72
2021/07/16 03:40:40;;;;;;;8.13;4.82;;;;;;;18.66;55.43;101550.03;3550355;40;20072;-72
2021/07/16 03:43:09;;;;;;;7.05;3.80;;;;;;;18.68;55.08;101553.50;3559545;40;20392;-72
2021/07/16 03:45:37;;;;;;;7.57;4.00;;;;;;;18.65;55.75;101551.06;3558289;40;20287;-72
2021/07/16 03:48:06;;;;;;;9.52;4.30;;;;;;;18.65;55.62;101551.94;3563594;40;20053;-73
2021/07/16 03:50:34;;;;;;;7.78;4.78;;;;;;;18.65;54.79;101551.06;3560466;40;20054;-72
2021/07/16 03:53:03;;;;;;;7.28;4.00;;;;;;;18.65;55.28;101554.69;3566411;40;20057;-72
2021/07/16 03:55:31;;;;;;;8.55;4.82;;;;;;;18.64;55.06;101558.50;3546581;40;20054;-72
2021/07/16 03:57:59;;;;;;;9.20;4.75;;;;;;;18.63;55.00;101564.22;3558223;40;20049;-72
2021/07/16 04:00:30;;;;;;;8.68;4.22;;;;;;;18.67;55.07;101563.72;3558733;40;20061;-72
2021/07/16 04:03:00;;;;;;;8.35;3.85;;;;;;;18.65;54.86;101564.91;3554055;40;20647;-72
2021/07/16 04:05:30;;;;;;;5.82;3.75;;;;;;;18.63;55.43;101562.31;3554343;40;20079;-73
2021/07/16 04:08:03;;;;;;;7.05;3.83;;;;;;;18.63;55.11;101567.84;3566710;40;20053;-73
2021/07/16 04:10:32;;;;;;;9.38;4.28;;;;;;;18.60;55.29;101565.44;3566997;40;20131;-72
2021/07/16 04:13:02;;;;;;;6.03;4.28;;;;;;;18.60;54.78;101564.56;3566667;40;20049;-72
2021/07/16 04:15:31;;;;;;;7.28;3.90;;;;;;;18.60;55.33;101567.34;3557834;40;20406;-73
2021/07/16 04:18:01;;;;;;;6.28;3.78;;;;;;;18.58;55.10;101564.72;3564928;40;20140;-73
2021/07/16 04:20:32;;;;;;;6.00;3.88;;;;;;;18.58;55.25;101567.50;3564879;40;20416;-73
2021/07/16 04:23:01;;;;;;;8.32;4.78;;;;;;;18.55;55.41;101565.03;3565206;40;20041;-72
2021/07/16 04:25:30;;;;;;;7.13;4.03;;;;;;;18.55;55.22;101567.81;3557286;40;20682;-73
2021/07/16 04:28:00;;;;;;;6.88;4.10;;;;;;;18.55;55.34;101575.25;3558393;40;20060;-72
2021/07/16 04:30:29;;;;;;;9.18;4.57;;;;;;;18.53;54.75;101564.34;3562677;40;20053;-73
2021/07/16 04:33:00;;;;;;;8.57;4.93;;;;;;;18.54;54.59;101574.38;3557383;40;20061;-73
2021/07/16 04:35:28;;;;;;;6.72;3.85;;;;;;;18.51;54.92;101568.34;3564220;40;20057;-73
2021/07/16 04:37:56;;;;;;;6.97;4.00;;;;;;;18.50;54.81;101567.47;3558118;40;20093;-73
2021/07/16 04:40:26;;;;;;;6.97;4.07;;;;;;;18.51;54.86;101580.28;3567388;40;20346;-73
2021/07/16 04:42:56;;;;;;;9.45;4.57;;;;;;;18.51;54.92;101584.97;3565877;40;20133;-73
2021/07/16 04:45:25;;;;;;;7.85;4.25;;;;;;;18.49;55.54;101587.03;3566819;40;20151;-73
2021/07/16 04:47:53;;;;;;;6.45;3.85;;;;;;;18.49;55.59;101600.88;3564488;40;20049;-72
2021/07/16 04:50:23;;;;;;;7.88;4.43;;;;;;;18.49;55.41;101592.56;3560125;40;20195;-73
2021/07/16 04:52:52;;;;;;;8.45;4.40;;;;;;;18.48;54.88;101590.81;3542938;40;20146;-73
2021/07/16 04:55:21;;;;;;;8.00;4.95;;;;;;;18.48;55.16;101596.38;3561979;40;20042;-72
2021/07/16 04:57:50;;;;;;;7.65;3.90;;;;;;;18.47;55.03;101597.38;3562959;40;20491;-73
2021/07/16 05:00:19;;;;;;;8.85;4.47;;;;;;;18.46;54.82;101599.28;3565727;40;20398;-74
2021/07/16 05:02:47;;;;;;;9.73;4.53;;;;;;;18.44;54.55;101591.16;3564672;40;20364;-73
2021/07/16 05:05:16;;;;;;;8.23;4.10;;;;;;;18.44;54.97;101604.16;3565758;40;20045;-73
2021/07/16 05:07:46;;;;;;;6.72;4.30;;;;;;;18.44;54.68;101602.22;3562032;40;20393;-73
2021/07/16 05:10:14;;;;;;;6.75;4.32;;;;;;;18.42;55.20;101596.00;3566278;40;20053;-72
2021/07/16 05:12:42;;;;;;;6.30;4.13;;;;;;;18.42;55.10;101595.13;3534902;40;20050;-73
2021/07/16 05:15:12;;;;;;;6.90;4.22;;;;;;;18.41;55.17;101597.03;3554540;40;20127;-73
2021/07/16 05:17:40;;;;;;;8.10;4.20;;;;;;;18.39;55.35;101593.56;3554137;40;20041;-73
2021/07/16 05:20:09;;;;;;;5.70;3.90;;;;;;;18.40;55.21;101600.84;3562340;40;20053;-73
2021/07/16 05:22:39;;;;;;;7.95;4.30;;;;;;;18.39;54.70;101598.22;3555818;40;20151;-73
2021/07/16 05:25:09;;;;;;;6.68;4.18;;;;;;;18.39;55.28;101606.53;3565810;40;20060;-73
2021/07/16 05:27:39;;;;;;;6.55;4.07;;;;;;;18.33;55.03;101605.31;3565307;40;20045;-73
2021/07/16 05:30:09;;;;;;;7.43;3.83;;;;;;;18.33;54.86;101607.22;3557123;40;20045;-72
2021/07/16 05:32:37;;;;;;;6.38;3.97;;;;;;;18.31;54.73;101610.13;3566007;40;20046;-73
2021/07/16 05:35:06;;;;;;;7.68;4.15;;;;;;;18.31;55.13;101606.50;3563643;40;20085;-72
2021/07/16 05:37:34;;;;;;;8.00;3.95;;;;;;;18.30;55.24;101611.16;3564482;40;20613;-73
2021/07/16 05:40:02;;;;;;;7.13;4.20;;;;;;;18.30;55.45;101618.59;3566993;40;20057;-74
2021/07/16 05:42:31;;;;;;;5.97;3.70;;;;;;;18.31;55.00;101617.56;3566591;40;20146;-74
2021/07/16 05:44:59;;;;;;;8.55;4.25;;;;;;;18.27;55.10;101619.81;3554749;40;20069;-74
2021/07/16 05:47:28;;;;;;;6.60;3.67;;;;;;;18.27;54.83;101630.91;3534621;40;20046;-74
2021/07/16 05:49:56;;;;;;;7.20;3.58;;;;;;;18.25;54.42;101621.00;3567177;40;20053;-74
2021/07/16 05:52:24;;;;;;;6.47;3.65;;;;;;;18.23;54.94;101620.28;3563286;40;20414;-74
2021/07/16 05:54:58;;;;;;;7.18;4.05;;;;;;;18.24;55.16;101628.44;3567388;40;20454;-74
2021/07/16 05:57:27;;;;;;;7.00;4.03;;;;;;;18.19;55.20;101635.53;3566405;40;20053;-74
2021/07/16 05:59:56;;;;;;;5.60;3.95;;;;;;;18.18;54.86;101636.56;3557808;40;20057;-74
2021/07/16 06:02:26;;;;;;;5.95;4.00;;;;;;;18.14;54.62;101632.34;3531921;40;20501;-76
2021/07/16 06:04:54;;;;;;;5.63;3.75;;;;;;;18.10;55.38;101631.81;3557302;40;20571;-76
2021/07/16 06:07:23;;;;;;;5.80;4.07;;;;;;;18.08;55.09;101633.00;3562851;40;20046;-76
2021/07/16 06:09:51;;;;;;;7.80;4.32;;;;;;;18.05;55.28;101632.31;3564670;40;20119;-76
2021/07/16 06:12:21;;;;;;;6.65;3.88;;;;;;;18.02;54.81;101628.97;3535047;40;20034;-77
2021/07/16 06:14:54;;;;;;;8.32;4.80;;;;;;;18.01;55.25;101638.31;3564362;40;20045;-75
2021/07/16 06:17:23;;;;;;;8.20;4.38;;;;;;;17.99;55.10;101634.81;3562563;40;20041;-78
2021/07/16 06:19:52;;;;;;;7.32;5.20;;;;;;;17.97;54.63;101636.88;3564924;40;20073;-76
2021/07/16 06:22:20;;;;;;;7.82;5.00;;;;;;;17.95;54.63;101634.25;3566099;40;20033;-77
2021/07/16 06:24:48;;;;;;;9.88;5.80;;;;;;;17.92;54.57;101642.91;3564872;40;20085;-77
2021/07/16 06:27:16;;;;;;;8.90;6.03;;;;;;;17.90;54.95;101644.97;3551273;40;20042;-75
2021/07/16 06:29:44;;;;;;;10.30;7.55;;;;;;;17.88;54.77;101643.38;3565999;40;20053;-77
2021/07/16 06:32:12;;;;;;;13.82;9.63;;;;;;;17.87;55.11;101641.63;3547011;40;20132;-77
2021/07/16 06:34:42;;;;;;;11.38;9.63;;;;;;;17.86;55.10;101643.56;3564845;40;20097;-76
2021/07/16 06:37:10;;;;;;;13.80;10.43;;;;;;;17.83;55.20;101645.78;3564535;40;20116;-76
2021/07/16 06:39:39;;;;;;;16.13;11.40;;;;;;;17.84;55.43;101650.28;3556330;40;20412;-78
2021/07/16 06:42:08;;;;;;;16.90;11.68;;;;;;;17.81;55.02;101656.13;3555101;40;20049;-76
2021/07/16 06:44:36;;;;;;;16.63;11.93;;;;;;;17.80;55.51;101651.63;3565843;40;20402;-76
2021/07/16 06:47:04;;;;;;;16.58;11.73;;;;;;;17.78;55.15;101664.78;3564535;40;20053;-76
2021/07/16 06:49:32;;;;;;;15.45;11.40;;;;;;;17.76;55.37;101664.06;3555957;40;20062;-76
2021/07/16 06:52:02;;;;;;;14.02;10.55;;;;;;;17.77;55.18;101660.25;3540249;40;20520;-77
2021/07/16 06:54:30;;;;;;;13.57;9.98;;;;;;;17.74;55.92;101661.44;3563292;40;20061;-76
2021/07/16 06:56:58;;;;;;;14.43;10.73;;;;;;;17.76;55.82;101666.81;3548700;40;20053;-79
2021/07/16 06:59:27;;;;;;;15.50;11.52;;;;;;;17.76;56.01;101676.00;3556074;40;20049;-77
2021/07/16 07:01:55;;;;;;;19.45;12.00;;;;;;;17.76;55.39;101672.34;3565090;40;20050;-77
2021/07/16 07:04:24;;;;;;;16.08;11.70;;;;;;;17.77;56.03;101686.03;3566830;40;20135;-77
2021/07/16 07:06:53;;;;;;;15.52;11.60;;;;;;;17.78;55.98;101695.22;3566811;40;20383;-77
2021/07/16 07:09:23;;;;;;;14.80;11.57;;;;;;;17.81;56.23;101689.34;3567228;40;20060;-77
2021/07/16 07:11:51;;;;;;;14.80;11.15;;;;;;;17.79;55.85;101694.16;3565141;40;20139;-77
2021/07/16 07:14:19;;;;;;;16.40;11.23;;;;;;;17.78;55.66;101696.09;3565411;40;20318;-77
2021/07/16 07:16:47;;;;;;;22.33;11.80;;;;;;;17.79;55.52;101696.94;3564850;40;20390;-78
2021/07/16 07:19:16;;;;;;;16.90;12.43;;;;;;;17.79;55.17;101697.78;3565123;40;20057;-75
2021/07/16 07:21:44;;;;;;;15.50;11.60;;;;;;;17.80;55.88;101693.13;3557958;40;20056;-76
2021/07/16 07:24:14;;;;;;;16.30;11.55;;;;;;;17.80;56.11;101694.00;3567858;40;20048;-77
2021/07/16 07:26:43;;;;;;;16.05;12.15;;;;;;;17.82;56.17;101707.69;3565882;40;20392;-76
2021/07/16 07:29:11;;;;;;;14.50;10.15;;;;;;;17.80;56.10;101702.31;3566040;40;20057;-77
2021/07/16 07:31:39;;;;;;;12.85;9.43;;;;;;;17.79;55.24;101705.22;3544857;40;20074;-77
2021/07/16 07:34:10;;;;;;;15.43;10.02;;;;;;;17.79;55.16;101711.63;3562789;40;21079;-77
2021/07/16 07:36:39;;;;;;;13.43;9.52;;;;;;;17.77;55.53;101705.41;3547222;40;20030;-76
2021/07/16 07:39:07;;;;;;;11.68;8.40;;;;;;;17.76;56.04;101705.56;3564420;40;20363;-78
2021/07/16 07:41:35;;;;;;;11.60;8.88;;;;;;;17.76;56.14;101713.88;3566515;40;20071;-76
2021/07/16 07:44:05;;;;;;;11.80;8.43;;;;;;;17.79;56.41;101713.53;3566705;40;20115;-77
2021/07/16 07:46:33;;;;;;;10.85;7.88;;;;;;;17.78;56.55;101725.66;3572583;40;20060;-77
2021/07/16 07:49:02;;;;;;;11.45;8.63;;;;;;;17.77;56.01;101713.72;3569164;40;20058;-76
2021/07/16 07:51:32;;;;;;;12.27;7.85;;;;;;;17.79;56.37;101716.28;3553881;40;20572;-77
2021/07/16 07:54:00;;;;;;;11.90;8.13;;;;;;;17.80;56.09;101718.03;3556330;40;20062;-77
2021/07/16 07:56:30;;;;;;;13.65;8.45;;;;;;;17.82;56.09;101718.75;3564842;40;20042;-77
2021/07/16 07:58:58;;;;;;;11.80;8.48;;;;;;;17.83;56.79;101720.50;3567163;40;20138;-77
2021/07/16 08:01:33;;;;;;;14.68;9.45;;;;;;;17.83;56.33;101723.28;3552328;40;20086;-77
2021/07/16 08:04:02;;;;;;;11.07;9.00;;;;;;;17.84;56.34;101719.47;3566045;40;20057;-76
2021/07/16 08:06:30;;;;;;;12.02;9.40;;;;;;;17.84;56.05;101730.53;3551038;40;20041;-76
2021/07/16 08:08:58;;;;;;;12.25;9.13;;;;;;;17.85;55.95;101727.63;3564456;40;20066;-77
2021/07/16 08:11:27;;;;;;;14.02;8.80;;;;;;;17.84;55.83;101728.66;3548914;40;20030;-76
2021/07/16 08:14:07;;;;;;;10.70;8.48;;;;;;;17.88;56.53;101727.28;3566914;40;20143;-76
2021/07/16 08:16:37;;;;;;;15.27;9.35;;;;;;;17.86;56.22;101732.13;3550590;40;20049;-76
2021/07/16 08:19:05;;;;;;;12.60;9.10;;;;;;;17.86;56.37;101734.03;3567249;40;20052;-77
2021/07/16 08:21:33;;;;;;;15.30;9.23;;;;;;;17.86;56.38;101740.44;3546584;40;20306;-77
2021/07/16 08:24:02;;;;;;;11.88;8.57;;;;;;;17.88;56.69;101737.50;3560745;40;20115;-77
2021/07/16 08:26:30;;;;;;;12.38;7.53;;;;;;;17.88;56.08;101738.34;3565889;40;20037;-78
2021/07/16 08:28:58;;;;;;;12.45;8.40;;;;;;;17.88;55.78;101738.34;3567552;40;20060;-77
2021/07/16 08:31:26;;;;;;;12.40;8.95;;;;;;;17.88;56.06;101738.34;3558098;40;20477;-78
2021/07/16 08:33:55;;;;;;;14.30;9.30;;;;;;;17.91;55.65;101754.66;3560818;40;20131;-77
2021/07/16 08:36:23;;;;;;;11.23;8.07;;;;;;;17.91;56.71;101746.34;3564948;40;20519;-75
2021/07/16 08:38:52;;;;;;;12.77;8.07;;;;;;;17.93;56.01;101746.22;3564053;40;20567;-76
2021/07/16 08:41:21;;;;;;;14.30;9.20;;;;;;;17.94;56.11;101746.06;3562599;40;20053;-75
2021/07/16 08:43:51;;;;;;;12.30;8.30;;;;;;;17.95;56.14;101745.00;3566337;40;20295;-75
2021/07/16 08:46:20;;;;;;;11.13;8.48;;;;;;;17.96;56.23;101748.63;3555513;40;20053;-76
2021/07/16 08:48:48;;;;;;;12.50;9.18;;;;;;;17.96;56.72;101757.81;3571024;40;20065;-75
2021/07/16 08:51:19;;;;;;;11.93;8.88;;;;;;;18.00;57.20;101762.03;3566016;40;20054;-76
2021/07/16 08:53:51;;;;;;;11.95;9.57;;;;;;;18.00;56.78;101755.59;3561473;40;20384;-77
2021/07/16 08:56:26;;;;;;;13.23;8.60;;;;;;;18.00;56.97;101764.78;3571121;40;20048;-74
2021/07/16 08:58:54;;;;;;;13.13;8.95;;;;;;;18.00;56.72;101767.56;3565324;40;20053;-75
2021/07/16 09:01:22;;;;;;;11.32;8.60;;;;;;;18.03;56.84;101774.69;3567079;40;20146;-75
2021/07/16 09:03:58;;;;;;;13.93;9.38;;;;;;;18.08;55.27;101774.22;3565551;40;20343;-74
2021/07/16 09:06:48;;;;;;;12.85;9.15;;;;;;;18.05;57.11;101767.09;3547530;40;20034;-74
2021/07/16 09:09:17;;;;;;;12.73;9.18;;;;;;;18.08;56.99;101772.31;3562936;40;20049;-75
2021/07/16 09:11:47;;;;;;;11.48;8.60;;;;;;;18.11;56.60;101776.69;3541323;40;20418;-75
2021/07/16 09:14:25;;;;;;;11.93;8.52;;;;;;;18.12;56.76;101767.31;3555364;40;20107;-75
2021/07/16 09:16:56;;;;;;;12.05;8.85;;;;;;;18.13;56.01;101777.38;3546366;40;20037;-75
2021/07/16 09:19:32;;;;;;;12.90;8.93;;;;;;;18.15;56.66;101786.41;3565520;40;20041;-76
2021/07/16 09:22:08;;;;;;;13.27;8.85;;;;;;;18.15;56.11;101784.50;3564587;40;20101;-76
2021/07/16 09:24:41;;;;;;;13.15;8.32;;;;;;;18.15;56.49;101790.03;3562553;40;20046;-76
2021/07/16 09:27:31;;;;;;;14.90;9.75;;;;;;;18.15;55.91;101800.25;3564490;40;20365;-75
2021/07/16 09:30:18;;;;;;;14.10;9.27;;;;;;;18.16;56.68;101797.31;3563939;40;20045;-73
2021/07/16 09:32:48;;;;;;;13.77;9.75;;;;;;;18.18;56.01;101799.94;3546934;40;20049;-74
2021/07/16 09:35:21;;;;;;;12.00;9.55;;;;;;;18.22;56.08;101804.97;3565923;40;20065;-73
2021/07/16 09:37:52;;;;;;;13.50;9.88;;;;;;;18.22;55.75;101804.09;3563905;40;20118;-74
2021/07/16 09:40:22;;;;;;;13.93;9.73;;;;;;;18.22;56.11;101813.28;3558039;40;20049;-74
2021/07/16 09:42:57;;;;;;;13.57;9.35;;;;;;;18.25;55.75;101812.97;3563711;40;20053;-76
2021/07/16 09:45:25;;;;;;;12.18;7.85;;;;;;;18.24;56.44;101813.13;3565241;40;20056;-75
2021/07/16 09:47:54;;;;;;;12.18;7.50;;;;;;;18.25;56.56;101815.75;3565481;40;20041;-74
2021/07/16 09:50:25;;;;;;;12.18;7.72;;;;;;;18.28;56.58;101809.88;3564283;40;20414;-75
2021/07/16 09:53:19;;;;;;;11.80;7.55;;;;;;;18.27;56.60;101798.97;3559978;40;20080;-76
2021/07/16 09:55:47;;;;;;;9.52;7.25;;;;;;;18.26;56.25;101803.66;3566013;40;20073;-75
2021/07/16 09:58:26;;;;;;;9.77;7.22;;;;;;;18.31;56.82;101801.25;3565950;40;20059;-77
2021/07/16 10:00:55;;;;;;;10.18;6.97;;;;;;;18.31;56.40;101800.38;3557489;40;20085;-76
2021/07/16 10:03:24;;;;;;;9.20;7.10;;;;;;;18.32;56.62;101796.59;3565861;40;20476;-75
2021/07/16 10:05:52;;;;;;;8.70;6.35;;;;;;;18.33;56.53;101793.66;3566671;40;20041;-75
2021/07/16 10:08:22;;;;;;;9.45;5.60;;;;;;;18.36;56.05;101790.53;3561299;40;20406;-75
2021/07/16 10:10:50;;;;;;;7.70;5.30;;;;;;;18.38;56.83;101795.94;3564622;40;20085;-75
2021/07/16 10:13:18;;;;;;;8.10;5.35;;;;;;;18.40;56.50;101793.88;3568009;40;20101;-76
2021/07/16 10:15:47;;;;;;;8.55;5.43;;;;;;;18.44;56.76;101795.31;3551457;40;20388;-77
2021/07/16 10:18:15;;;;;;;8.52;6.00;;;;;;;18.45;56.90;101792.34;3557979;40;20053;-76
2021/07/16 10:20:43;;;;;;;10.15;5.45;;;;;;;18.48;56.62;101788.41;3566330;40;20079;-76
2021/07/16 10:23:12;;;;;;;8.13;5.13;;;;;;;18.52;56.02;101791.72;3565461;40;20127;-76
2021/07/16 10:25:41;;;;;;;8.07;5.18;;;;;;;18.54;56.15;101793.28;3556061;40;20050;-76
2021/07/16 10:28:10;;;;;;;7.75;4.93;;;;;;;18.55;56.53;101789.50;3556610;40;20060;-75
2021/07/16 10:30:40;;;;;;;7.68;5.47;;;;;;;18.57;56.68;101794.88;3563368;40;20105;-76
2021/07/16 10:33:08;;;;;;;10.07;5.40;;;;;;;18.59;56.59;101804.78;3554270;40;20063;-76
2021/07/16 10:35:38;;;;;;;9.70;5.63;;;;;;;18.62;56.82;101798.00;3557178;40;20158;-76
2021/07/16 10:38:33;;;;;;;10.35;5.30;;;;;;;18.62;57.30;101800.78;3567473;40;20105;-76
2021/07/16 10:41:03;;;;;;;8.80;5.22;;;;;;;18.65;56.33;101797.69;3562323;40;20050;-75
2021/07/16 10:43:40;;;;;;;10.75;5.78;;;;;;;18.69;56.47;101797.19;3564190;40;20064;-75
2021/07/16 10:46:36;;;;;;;9.50;5.22;;;;;;;18.68;55.88;101805.69;3564765;40;20045;-72
2021/07/16 10:49:09;;;;;;;7.95;4.90;;;;;;;18.68;55.89;101814.03;3563666;40;20049;-73
2021/07/16 10:51:38;;;;;;;;;;;;;;;18.41;56.48;101806.72;3567715;40;20038;-73
2021/07/16 10:54:07;;;;;;;6.95;4.40;;;;;;;18.68;55.90;101811.25;3567521;40;19941;-73
2021/07/16 10:56:45;;;;;;;8.55;4.93;;;;;;;18.74;54.41;101819.78;3566938;40;20041;-73
2021/07/16 10:59:43;;;;;;;8.50;5.32;;;;;;;18.76;55.44;101823.25;3556123;40;20438;-74
2021/07/16 11:02:47;;;;;;;9.52;5.55;;;;;;;18.70;55.46;101810.03;3564522;40;20425;-73
2021/07/16 11:05:50;;;;;;;8.75;5.38;;;;;;;18.77;55.64;101805.56;3534500;40;20061;-73
2021/07/16 11:08:49;;;;;;;8.23;5.68;;;;;;;18.80;56.39;101816.38;3534047;40;20038;-73
2021/07/16 11:11:19;;;;;;;7.85;5.47;;;;;;;18.84;56.07;101821.59;3563151;40;20046;-73
2021/07/16 11:13:49;;;;;;;8.07;5.40;;;;;;;18.88;55.82;101812.78;3565846;40;20049;-73
2021/07/16 11:16:41;;;;;;;10.27;6.13;;;;;;;18.91;55.92;101815.25;3553200;40;20349;-73
2021/07/16 11:19:23;;;;;;;9.23;5.93;;;;;;;18.94;56.69;101812.13;3560132;40;20065;-73
2021/07/16 11:21:58;;;;;;;9.60;5.90;;;;;;;18.96;56.24;101810.06;3554862;40;20440;-73
2021/07/16 11:24:30;;;;;;;8.43;6.15;;;;;;;19.01;56.19;101806.81;3557437;40;20052;-73
2021/07/16 11:27:00;;;;;;;9.93;7.00;;;;;;;19.03;55.49;101829.69;3541090;40;20025;-72
2021/07/16 11:29:34;;;;;;;11.63;7.22;;;;;;;19.10;55.81;101828.00;3558549;40;20343;-72
2021/07/16 11:32:05;;;;;;;12.35;8.63;;;;;;;19.11;55.25;101821.41;3562728;40;20049;-73
2021/07/16 11:34:34;;;;;;;9.63;7.68;;;;;;;19.13;55.57;101825.75;3568048;40;20342;-73